createdAt,value
2023-02-04T00:00:37.986Z,1025.15
2023-02-04T00:01:37.863Z,1025.23
2023-02-04T00:02:37.890Z,1025.15
2023-02-04T00:03:37.842Z,1025.21
2023-02-04T00:04:37.836Z,1025.26
2023-02-04T00:05:37.826Z,1025.30
2023-02-04T00:06:37.808Z,1025.28
2023-02-04T00:07:37.786Z,1025.27
2023-02-04T00:08:37.813Z,1025.31
2023-02-04T00:09:37.774Z,1025.34
2023-02-04T00:10:37.755Z,1025.41
2023-02-04T00:11:37.745Z,1025.40
2023-02-04T00:12:37.745Z,1025.40
2023-02-04T00:13:37.735Z,1025.41
2023-02-04T00:14:37.715Z,1025.40
2023-02-04T00:15:37.713Z,1025.42
2023-02-04T00:16:37.684Z,1025.44
2023-02-04T00:17:37.692Z,1025.44
2023-02-04T00:18:37.674Z,1025.47
2023-02-04T00:19:37.678Z,1025.45
2023-02-04T00:20:37.663Z,1025.48
2023-02-04T00:21:37.640Z,1025.49
2023-02-04T00:22:37.745Z,1025.53
2023-02-04T00:23:37.651Z,1025.54
2023-02-04T00:24:37.597Z,1025.57
2023-02-04T00:25:37.596Z,1025.57
2023-02-04T00:26:37.584Z,1025.61
2023-02-04T00:27:37.585Z,1025.59
2023-02-04T00:28:37.582Z,1025.60
2023-02-04T00:29:37.556Z,1025.56
2023-02-04T00:30:37.528Z,1025.61
2023-02-04T00:31:37.606Z,1025.57
2023-02-04T00:32:37.523Z,1025.64
2023-02-04T00:33:37.527Z,1025.60
2023-02-04T00:34:37.490Z,1025.61
2023-02-04T00:35:37.503Z,1025.60
2023-02-04T00:36:37.469Z,1025.59
2023-02-04T00:37:37.464Z,1025.56
2023-02-04T00:38:37.461Z,1025.59
2023-02-04T00:39:37.439Z,1025.58
2023-02-04T00:40:37.443Z,1025.62
2023-02-04T00:41:37.419Z,1025.63
2023-02-04T00:42:37.411Z,1025.63
2023-02-04T00:43:37.434Z,1025.63
2023-02-04T00:44:37.394Z,1025.64
2023-02-04T00:45:37.521Z,1025.69
2023-02-04T00:46:37.373Z,1025.77
2023-02-04T00:47:37.366Z,1025.81
2023-02-04T00:48:37.361Z,1025.81
2023-02-04T00:49:37.331Z,1025.77
2023-02-04T00:50:37.331Z,1025.78
2023-02-04T00:51:37.312Z,1025.78
2023-02-04T00:52:37.303Z,1025.77
2023-02-04T00:53:37.301Z,1025.85
2023-02-04T00:54:37.272Z,1025.83
2023-02-04T00:55:37.277Z,1025.83
2023-02-04T00:56:37.254Z,1025.81
2023-02-04T00:57:37.262Z,1025.78
2023-02-04T00:58:37.245Z,1025.81
2023-02-04T00:59:37.225Z,1025.78
2023-02-04T01:00:37.242Z,1025.85
2023-02-04T01:01:37.203Z,1025.87
2023-02-04T01:02:37.218Z,1025.85
2023-02-04T01:03:37.216Z,1025.88
2023-02-04T01:04:37.175Z,1025.87
2023-02-04T01:05:37.165Z,1025.89
2023-02-04T01:06:37.146Z,1025.91
2023-02-04T01:07:37.171Z,1025.88
2023-02-04T01:08:37.199Z,1025.89
2023-02-04T01:09:37.128Z,1025.91
2023-02-04T01:10:37.113Z,1025.89
2023-02-04T01:11:37.100Z,1025.86
2023-02-04T01:12:37.087Z,1025.90
2023-02-04T01:13:37.092Z,1026.00
2023-02-04T01:14:37.060Z,1025.97
2023-02-04T01:15:37.050Z,1025.97
2023-02-04T01:16:37.064Z,1026.00
2023-02-04T01:17:37.055Z,1025.94
2023-02-04T01:18:37.034Z,1025.94
2023-02-04T01:19:37.022Z,1025.95
2023-02-04T01:20:37.003Z,1025.93
2023-02-04T01:21:36.991Z,1025.96
2023-02-04T01:22:36.978Z,1025.99
2023-02-04T01:23:37.021Z,1026.01
2023-02-04T01:24:36.953Z,1026.01
2023-02-04T01:25:36.946Z,1026.02
2023-02-04T01:26:36.951Z,1026.03
2023-02-04T01:27:36.930Z,1026.04
2023-02-04T01:28:36.935Z,1026.07
2023-02-04T01:29:36.905Z,1026.16
2023-02-04T01:30:36.899Z,1026.21
2023-02-04T01:31:36.934Z,1026.20
2023-02-04T01:32:36.872Z,1026.14
2023-02-04T01:33:36.867Z,1026.14
2023-02-04T01:34:36.865Z,1026.13
2023-02-04T01:35:36.846Z,1026.15
2023-02-04T01:36:36.827Z,1026.11
2023-02-04T01:37:36.816Z,1026.13
2023-02-04T01:38:36.814Z,1026.12
2023-02-04T01:39:36.813Z,1026.13
2023-02-04T01:40:36.775Z,1026.12
2023-02-04T01:41:36.773Z,1026.13
2023-02-04T01:42:36.755Z,1026.16
2023-02-04T01:43:36.765Z,1026.19
2023-02-04T01:44:36.744Z,1026.25
2023-02-04T01:45:36.766Z,1026.19
2023-02-04T01:46:36.755Z,1026.24
2023-02-04T01:47:36.716Z,1026.24
2023-02-04T01:48:36.696Z,1026.25
2023-02-04T01:49:36.687Z,1026.19
2023-02-04T01:50:36.666Z,1026.23
2023-02-04T01:51:36.665Z,1026.25
2023-02-04T01:52:36.650Z,1026.21
2023-02-04T01:53:36.677Z,1026.29
2023-02-04T01:54:36.630Z,1026.28
2023-02-04T01:55:36.618Z,1026.28
2023-02-04T01:56:36.671Z,1026.27
2023-02-04T01:57:36.599Z,1026.26
2023-02-04T01:58:36.580Z,1026.31
2023-02-04T01:59:36.577Z,1026.30
2023-02-04T02:00:36.568Z,1026.33
2023-02-04T02:01:36.557Z,1026.37
2023-02-04T02:02:36.559Z,1026.37
2023-02-04T02:03:36.560Z,1026.37
2023-02-04T02:04:36.531Z,1026.38
2023-02-04T02:05:36.513Z,1026.38
2023-02-04T02:06:36.528Z,1026.42
2023-02-04T02:07:36.490Z,1026.42
2023-02-04T02:08:36.511Z,1026.42
2023-02-04T02:09:36.459Z,1026.49
2023-02-04T02:10:36.447Z,1026.50
2023-02-04T02:11:36.447Z,1026.50
2023-02-04T02:12:36.559Z,1026.54
2023-02-04T02:13:36.429Z,1026.49
2023-02-04T02:14:36.418Z,1026.55
2023-02-04T02:15:36.407Z,1026.55
2023-02-04T02:16:36.421Z,1026.52
2023-02-04T02:17:36.381Z,1026.51
2023-02-04T02:18:36.379Z,1026.51
2023-02-04T02:19:36.370Z,1026.55
2023-02-04T02:20:36.342Z,1026.53
2023-02-04T02:21:36.329Z,1026.52
2023-02-04T02:22:36.351Z,1026.53
2023-02-04T02:23:36.340Z,1026.54
2023-02-04T02:24:36.320Z,1026.53
2023-02-04T02:25:36.300Z,1026.50
2023-02-04T02:26:36.271Z,1026.51
2023-02-04T02:27:36.291Z,1026.51
2023-02-04T02:28:36.262Z,1026.53
2023-02-04T02:29:36.274Z,1026.56
2023-02-04T02:30:36.267Z,1026.59
2023-02-04T02:31:36.344Z,1026.55
2023-02-04T02:32:36.205Z,1026.58
2023-02-04T02:33:36.321Z,1026.59
2023-02-04T02:34:36.198Z,1026.60
2023-02-04T02:35:36.187Z,1026.65
2023-02-04T02:36:36.167Z,1026.62
2023-02-04T02:37:36.245Z,1026.66
2023-02-04T02:38:36.159Z,1026.67
2023-02-04T02:39:36.166Z,1026.67
2023-02-04T02:40:36.156Z,1026.66
2023-02-04T02:41:36.126Z,1026.72
2023-02-04T02:42:36.091Z,1026.72
2023-02-04T02:43:36.121Z,1026.71
2023-02-04T02:44:36.072Z,1026.70
2023-02-04T02:45:36.070Z,1026.77
2023-02-04T02:46:36.062Z,1026.76
2023-02-04T02:47:36.045Z,1026.75
2023-02-04T02:48:36.043Z,1026.75
2023-02-04T02:49:36.021Z,1026.75
2023-02-04T02:50:36.020Z,1026.74
2023-02-04T02:51:36.003Z,1026.74
2023-02-04T02:52:36.001Z,1026.76
2023-02-04T02:53:36.343Z,1026.74
2023-02-04T02:54:35.972Z,1026.74
2023-02-04T02:55:35.950Z,1026.76
2023-02-04T02:56:35.957Z,1026.75
2023-02-04T02:57:35.929Z,1026.75
2023-02-04T02:58:35.948Z,1026.77
2023-02-04T02:59:35.910Z,1026.75
2023-02-04T03:00:35.909Z,1026.78
2023-02-04T03:01:35.976Z,1026.73
2023-02-04T03:02:35.926Z,1026.74
2023-02-04T03:03:35.871Z,1026.78
2023-02-04T03:04:35.852Z,1026.79
2023-02-04T03:05:35.860Z,1026.78
2023-02-04T03:06:35.830Z,1026.79
2023-02-04T03:07:35.818Z,1026.88
2023-02-04T03:08:35.822Z,1026.88
2023-02-04T03:09:35.791Z,1026.88
2023-02-04T03:10:35.782Z,1026.87
2023-02-04T03:11:35.817Z,1026.90
2023-02-04T03:12:35.759Z,1026.91
2023-02-04T03:13:35.770Z,1026.91
2023-02-04T03:14:35.740Z,1026.94
2023-02-04T03:15:35.768Z,1026.93
2023-02-04T03:16:35.722Z,1026.97
2023-02-04T03:17:35.719Z,1026.97
2023-02-04T03:18:35.722Z,1026.99
2023-02-04T03:19:35.692Z,1027.00
2023-02-04T03:20:35.672Z,1027.03
2023-02-04T03:21:35.676Z,1027.01
2023-02-04T03:22:35.655Z,1027.05
2023-02-04T03:23:35.655Z,1027.04
2023-02-04T03:24:35.625Z,1027.05
2023-02-04T03:25:35.642Z,1027.03
2023-02-04T03:26:35.617Z,1027.07
2023-02-04T03:27:35.607Z,1027.08
2023-02-04T03:28:35.604Z,1027.06
2023-02-04T03:29:35.588Z,1027.03
2023-02-04T03:30:35.586Z,1027.04
2023-02-04T03:31:35.614Z,1027.03
2023-02-04T03:32:35.562Z,1027.03
2023-02-04T03:33:35.559Z,1027.02
2023-02-04T03:34:35.527Z,1027.05
2023-02-04T03:35:35.529Z,1027.07
2023-02-04T03:36:35.532Z,1027.04
2023-02-04T03:37:35.502Z,1027.11
2023-02-04T03:38:35.502Z,1027.14
2023-02-04T03:39:35.473Z,1027.17
2023-02-04T03:40:35.460Z,1027.19
2023-02-04T03:41:35.471Z,1027.21
2023-02-04T03:42:35.440Z,1027.19
2023-02-04T03:43:35.462Z,1027.21
2023-02-04T03:44:35.419Z,1027.18
2023-02-04T03:45:45.012Z,1027.18
2023-02-04T03:46:36.476Z,1027.13
2023-02-04T03:47:35.398Z,1027.14
2023-02-04T03:48:35.382Z,1027.17
2023-02-04T03:49:35.362Z,1027.21
2023-02-04T03:50:35.401Z,1027.17
2023-02-04T03:51:35.342Z,1027.22
2023-02-04T03:52:35.332Z,1027.21
2023-02-04T03:53:35.332Z,1027.19
2023-02-04T03:54:35.304Z,1027.23
2023-02-04T03:55:35.308Z,1027.25
2023-02-04T03:56:35.285Z,1027.24
2023-02-04T03:57:35.272Z,1027.26
2023-02-04T03:58:35.273Z,1027.28
2023-02-04T03:59:35.255Z,1027.29
2023-02-04T04:00:35.236Z,1027.26
2023-02-04T04:01:35.282Z,1027.27
2023-02-04T04:02:35.249Z,1027.32
2023-02-04T04:03:35.215Z,1027.35
2023-02-04T04:04:35.203Z,1027.37
2023-02-04T04:05:35.199Z,1027.34
2023-02-04T04:06:35.177Z,1027.33
2023-02-04T04:07:35.179Z,1027.34
2023-02-04T04:08:35.198Z,1027.32
2023-02-04T04:09:35.146Z,1027.30
2023-02-04T04:10:35.147Z,1027.28
2023-02-04T04:11:35.133Z,1027.36
2023-02-04T04:12:35.128Z,1027.33
2023-02-04T04:13:35.120Z,1027.41
2023-02-04T04:14:35.088Z,1027.39
2023-02-04T04:15:35.081Z,1027.36
2023-02-04T04:16:35.070Z,1027.39
2023-02-04T04:17:35.058Z,1027.45
2023-02-04T04:18:35.056Z,1027.43
2023-02-04T04:19:35.047Z,1027.43
2023-02-04T04:20:35.376Z,1027.41
2023-02-04T04:21:35.024Z,1027.40
2023-02-04T04:22:35.004Z,1027.37
2023-02-04T04:23:35.022Z,1027.43
2023-02-04T04:24:34.988Z,1027.43
2023-02-04T04:25:34.969Z,1027.44
2023-02-04T04:26:34.968Z,1027.41
2023-02-04T04:27:34.953Z,1027.43
2023-02-04T04:28:34.964Z,1027.42
2023-02-04T04:29:34.927Z,1027.41
2023-02-04T04:30:34.968Z,1027.39
2023-02-04T04:31:34.968Z,1027.39
2023-02-04T04:32:34.894Z,1027.40
2023-02-04T04:33:34.884Z,1027.44
2023-02-04T04:34:34.877Z,1027.41
2023-02-04T04:35:34.895Z,1027.40
2023-02-04T04:36:34.974Z,1027.42
2023-02-04T04:37:34.845Z,1027.39
2023-02-04T04:38:34.853Z,1027.39
2023-02-04T04:39:34.803Z,1027.44
2023-02-04T04:40:34.920Z,1027.43
2023-02-04T04:41:34.795Z,1027.44
2023-02-04T04:42:34.800Z,1027.43
2023-02-04T04:43:34.774Z,1027.47
2023-02-04T04:44:34.747Z,1027.48
2023-02-04T04:45:34.762Z,1027.49
2023-02-04T04:46:34.787Z,1027.49
2023-02-04T04:47:34.742Z,1027.54
2023-02-04T04:48:34.712Z,1027.53
2023-02-04T04:49:34.704Z,1027.56
2023-02-04T04:50:34.893Z,1027.55
2023-02-04T04:51:34.673Z,1027.55
2023-02-04T04:52:34.676Z,1027.58
2023-02-04T04:53:34.683Z,1027.65
2023-02-04T04:54:34.634Z,1027.62
2023-02-04T04:55:34.633Z,1027.61
2023-02-04T04:56:34.634Z,1027.65
2023-02-04T04:57:34.608Z,1027.64
2023-02-04T04:58:34.613Z,1027.71
2023-02-04T04:59:34.583Z,1027.72
2023-02-04T05:00:34.829Z,1027.74
2023-02-04T05:01:34.564Z,1027.75
2023-02-04T05:02:34.548Z,1027.72
2023-02-04T05:03:34.578Z,1027.74
2023-02-04T05:04:34.644Z,1027.76
2023-02-04T05:05:34.536Z,1027.73
2023-02-04T05:06:34.517Z,1027.79
2023-02-04T05:07:34.506Z,1027.77
2023-02-04T05:08:34.509Z,1027.78
2023-02-04T05:09:34.481Z,1027.78
2023-02-04T05:10:34.481Z,1027.80
2023-02-04T05:11:34.468Z,1027.84
2023-02-04T05:12:34.459Z,1027.81
2023-02-04T05:13:34.465Z,1027.81
2023-02-04T05:14:34.425Z,1027.83
2023-02-04T05:15:34.434Z,1027.84
2023-02-04T05:16:34.453Z,1027.80
2023-02-04T05:17:34.392Z,1027.80
2023-02-04T05:18:34.392Z,1027.85
2023-02-04T05:19:34.380Z,1027.85
2023-02-04T05:20:34.624Z,1027.84
2023-02-04T05:21:34.364Z,1027.86
2023-02-04T05:22:34.371Z,1027.85
2023-02-04T05:23:34.346Z,1027.85
2023-02-04T05:24:34.326Z,1027.81
2023-02-04T05:25:34.317Z,1027.82
2023-02-04T05:26:34.295Z,1027.81
2023-02-04T05:27:34.283Z,1027.85
2023-02-04T05:28:34.285Z,1027.83
2023-02-04T05:29:34.274Z,1027.81
2023-02-04T05:30:34.584Z,1027.86
2023-02-04T05:31:34.379Z,1027.88
2023-02-04T05:32:34.230Z,1027.86
2023-02-04T05:33:34.226Z,1027.88
2023-02-04T05:34:34.208Z,1027.86
2023-02-04T05:35:34.196Z,1027.88
2023-02-04T05:36:34.190Z,1027.89
2023-02-04T05:37:34.179Z,1027.93
2023-02-04T05:38:34.182Z,1027.94
2023-02-04T05:39:34.147Z,1027.96
2023-02-04T05:40:34.351Z,1028.01
2023-02-04T05:41:34.139Z,1028.02
2023-02-04T05:42:34.116Z,1028.02
2023-02-04T05:43:34.143Z,1028.08
2023-02-04T05:44:34.114Z,1028.09
2023-02-04T05:45:34.152Z,1028.04
2023-02-04T05:46:34.095Z,1028.09
2023-02-04T05:47:34.164Z,1028.05
2023-02-04T05:48:34.056Z,1028.03
2023-02-04T05:49:34.080Z,1028.02
2023-02-04T05:50:34.275Z,1028.06
2023-02-04T05:51:34.019Z,1028.07
2023-02-04T05:52:34.005Z,1028.09
2023-02-04T05:53:34.013Z,1028.10
2023-02-04T05:54:33.993Z,1028.11
2023-02-04T05:55:33.987Z,1028.16
2023-02-04T05:56:33.985Z,1028.11
2023-02-04T05:57:33.994Z,1028.16
2023-02-04T05:58:33.966Z,1028.14
2023-02-04T05:59:33.938Z,1028.18
2023-02-04T06:00:34.278Z,1028.22
2023-02-04T06:01:33.907Z,1028.21
2023-02-04T06:02:33.917Z,1028.24
2023-02-04T06:03:33.973Z,1028.27
2023-02-04T06:04:33.913Z,1028.20
2023-02-04T06:05:33.868Z,1028.26
2023-02-04T06:06:33.857Z,1028.27
2023-02-04T06:07:33.843Z,1028.30
2023-02-04T06:08:33.857Z,1028.34
2023-02-04T06:09:33.816Z,1028.37
2023-02-04T06:10:33.981Z,1028.38
2023-02-04T06:11:33.811Z,1028.36
2023-02-04T06:12:33.788Z,1028.39
2023-02-04T06:13:33.810Z,1028.39
2023-02-04T06:14:33.780Z,1028.36
2023-02-04T06:15:33.748Z,1028.36
2023-02-04T06:16:33.774Z,1028.38
2023-02-04T06:17:33.735Z,1028.40
2023-02-04T06:18:33.736Z,1028.46
2023-02-04T06:19:33.708Z,1028.44
2023-02-04T06:20:33.970Z,1028.45
2023-02-04T06:21:33.679Z,1028.53
2023-02-04T06:22:33.697Z,1028.53
2023-02-04T06:23:33.695Z,1028.51
2023-02-04T06:24:33.678Z,1028.51
2023-02-04T06:25:33.641Z,1028.51
2023-02-04T06:26:33.668Z,1028.55
2023-02-04T06:27:33.629Z,1028.55
2023-02-04T06:28:33.628Z,1028.56
2023-02-04T06:29:33.597Z,1028.58
2023-02-04T06:30:33.913Z,1028.62
2023-02-04T06:31:33.669Z,1028.64
2023-02-04T06:32:33.580Z,1028.62
2023-02-04T06:33:33.570Z,1028.66
2023-02-04T06:34:33.549Z,1028.69
2023-02-04T06:35:33.540Z,1028.61
2023-02-04T06:36:33.547Z,1028.59
2023-02-04T06:37:33.520Z,1028.60
2023-02-04T06:38:33.531Z,1028.62
2023-02-04T06:39:33.494Z,1028.68
2023-02-04T06:40:33.863Z,1028.69
2023-02-04T06:41:33.482Z,1028.67
2023-02-04T06:42:33.472Z,1028.69
2023-02-04T06:43:33.472Z,1028.69
2023-02-04T06:44:33.439Z,1028.67
2023-02-04T06:45:33.418Z,1028.67
2023-02-04T06:46:33.420Z,1028.70
2023-02-04T06:47:33.401Z,1028.70
2023-02-04T06:48:33.400Z,1028.70
2023-02-04T06:49:33.371Z,1028.71
2023-02-04T06:50:33.689Z,1028.72
2023-02-04T06:51:33.358Z,1028.72
2023-02-04T06:52:33.342Z,1028.73
2023-02-04T06:53:33.342Z,1028.69
2023-02-04T06:54:33.324Z,1028.70
2023-02-04T06:55:33.324Z,1028.69
2023-02-04T06:56:33.308Z,1028.67
2023-02-04T06:57:33.284Z,1028.67
2023-02-04T06:58:33.299Z,1028.63
2023-02-04T06:59:33.271Z,1028.64
2023-02-04T07:00:33.697Z,1028.62
2023-02-04T07:01:33.318Z,1028.64
2023-02-04T07:02:33.249Z,1028.70
2023-02-04T07:03:33.264Z,1028.69
2023-02-04T07:04:33.219Z,1028.71
2023-02-04T07:05:33.204Z,1028.71
2023-02-04T07:06:33.194Z,1028.71
2023-02-04T07:07:33.178Z,1028.77
2023-02-04T07:08:33.184Z,1028.77
2023-02-04T07:09:33.169Z,1028.78
2023-02-04T07:10:33.633Z,1028.78
2023-02-04T07:11:33.137Z,1028.80
2023-02-04T07:12:33.127Z,1028.82
2023-02-04T07:13:33.126Z,1028.83
2023-02-04T07:14:33.106Z,1028.80
2023-02-04T07:15:33.106Z,1028.84
2023-02-04T07:16:33.093Z,1028.82
2023-02-04T07:17:33.076Z,1028.84
2023-02-04T07:18:33.095Z,1028.89
2023-02-04T07:19:33.047Z,1028.89
2023-02-04T07:20:33.517Z,1028.89
2023-02-04T07:21:33.037Z,1028.95
2023-02-04T07:22:33.019Z,1028.94
2023-02-04T07:23:33.021Z,1028.97
2023-02-04T07:24:33.008Z,1028.94
2023-02-04T07:25:32.996Z,1028.99
2023-02-04T07:26:32.968Z,1028.96
2023-02-04T07:27:32.974Z,1028.97
2023-02-04T07:28:32.968Z,1028.99
2023-02-04T07:29:32.962Z,1028.98
2023-02-04T07:30:33.291Z,1028.99
2023-02-04T07:31:33.059Z,1029.00
2023-02-04T07:32:32.936Z,1029.01
2023-02-04T07:33:32.943Z,1029.00
2023-02-04T07:34:32.908Z,1029.01
2023-02-04T07:35:32.887Z,1029.05
2023-02-04T07:36:32.945Z,1029.05
2023-02-04T07:37:32.856Z,1029.05
2023-02-04T07:38:32.888Z,1029.04
2023-02-04T07:39:32.829Z,1029.01
2023-02-04T07:40:33.299Z,1029.01
2023-02-04T07:41:32.913Z,1029.05
2023-02-04T07:42:32.824Z,1029.04
2023-02-04T07:43:32.806Z,1029.03
2023-02-04T07:44:32.764Z,1029.09
2023-02-04T07:45:32.762Z,1029.10
2023-02-04T07:46:32.796Z,1029.11
2023-02-04T07:47:32.753Z,1029.18
2023-02-04T07:48:32.746Z,1029.16
2023-02-04T07:49:32.721Z,1029.21
2023-02-04T07:50:32.962Z,1029.24
2023-02-04T07:51:32.689Z,1029.23
2023-02-04T07:52:32.684Z,1029.27
2023-02-04T07:53:32.710Z,1029.32
2023-02-04T07:54:32.651Z,1029.31
2023-02-04T07:55:32.647Z,1029.32
2023-02-04T07:56:32.631Z,1029.34
2023-02-04T07:57:32.626Z,1029.31
2023-02-04T07:58:32.648Z,1029.33
2023-02-04T07:59:32.599Z,1029.33
2023-02-04T08:00:32.975Z,1029.36
2023-02-04T08:01:32.608Z,1029.39
2023-02-04T08:02:32.617Z,1029.34
2023-02-04T08:03:32.995Z,1029.36
2023-02-04T08:04:32.551Z,1029.37
2023-02-04T08:05:32.536Z,1029.40
2023-02-04T08:06:32.518Z,1029.36
2023-02-04T08:07:32.516Z,1029.35
2023-02-04T08:08:32.529Z,1029.34
2023-02-04T08:09:32.487Z,1029.37
2023-02-04T08:10:32.907Z,1029.34
2023-02-04T08:11:32.582Z,1029.37
2023-02-04T08:12:32.449Z,1029.38
2023-02-04T08:13:32.459Z,1029.38
2023-02-04T08:14:32.442Z,1029.39
2023-02-04T08:15:32.419Z,1029.39
2023-02-04T08:16:32.415Z,1029.45
2023-02-04T08:17:32.398Z,1029.48
2023-02-04T08:18:32.396Z,1029.50
2023-02-04T08:19:32.378Z,1029.47
2023-02-04T08:20:32.692Z,1029.47
2023-02-04T08:21:32.358Z,1029.42
2023-02-04T08:22:32.364Z,1029.46
2023-02-04T08:23:32.345Z,1029.48
2023-02-04T08:24:32.320Z,1029.51
2023-02-04T08:25:32.308Z,1029.50
2023-02-04T08:26:32.301Z,1029.45
2023-02-04T08:27:32.301Z,1029.45
2023-02-04T08:28:32.308Z,1029.47
2023-02-04T08:29:32.280Z,1029.46
2023-02-04T08:30:32.465Z,1029.47
2023-02-04T08:31:32.378Z,1029.48
2023-02-04T08:32:32.238Z,1029.47
2023-02-04T08:33:32.228Z,1029.46
2023-02-04T08:34:32.249Z,1029.45
2023-02-04T08:35:32.208Z,1029.48
2023-02-04T08:36:32.192Z,1029.48
2023-02-04T08:37:32.219Z,1029.49
2023-02-04T08:38:32.196Z,1029.50
2023-02-04T08:39:32.167Z,1029.55
2023-02-04T08:40:32.474Z,1029.58
2023-02-04T08:41:32.155Z,1029.56
2023-02-04T08:42:32.129Z,1029.53
2023-02-04T08:43:32.158Z,1029.59
2023-02-04T08:44:32.110Z,1029.59
2023-02-04T08:45:32.094Z,1029.60
2023-02-04T08:46:32.146Z,1029.54
2023-02-04T08:47:32.088Z,1029.56
2023-02-04T08:48:32.076Z,1029.57
2023-02-04T08:49:32.063Z,1029.54
2023-02-04T08:50:32.330Z,1029.56
2023-02-04T08:51:32.037Z,1029.55
2023-02-04T08:52:32.029Z,1029.55
2023-02-04T08:53:32.068Z,1029.53
2023-02-04T08:54:32.016Z,1029.56
2023-02-04T08:55:32.005Z,1029.62
2023-02-04T08:56:32.028Z,1029.59
2023-02-04T08:57:31.974Z,1029.59
2023-02-04T08:58:31.987Z,1029.59
2023-02-04T08:59:31.955Z,1029.62
2023-02-04T09:00:32.209Z,1029.63
2023-02-04T09:01:31.951Z,1029.63
2023-02-04T09:02:31.937Z,1029.66
2023-02-04T09:03:31.936Z,1029.67
2023-02-04T09:04:31.921Z,1029.66
2023-02-04T09:05:31.957Z,1029.71
2023-02-04T09:06:31.895Z,1029.77
2023-02-04T09:07:32.044Z,1029.71
2023-02-04T09:08:31.886Z,1029.74
2023-02-04T09:09:31.852Z,1029.77
2023-02-04T09:10:32.126Z,1029.76
2023-02-04T09:11:31.838Z,1029.76
2023-02-04T09:12:31.834Z,1029.79
2023-02-04T09:13:31.855Z,1029.80
2023-02-04T09:14:31.813Z,1029.82
2023-02-04T09:15:31.795Z,1029.81
2023-02-04T09:16:31.828Z,1029.81
2023-02-04T09:17:31.784Z,1029.82
2023-02-04T09:18:31.778Z,1029.83
2023-02-04T09:19:31.748Z,1029.84
2023-02-04T09:20:32.080Z,1029.81
2023-02-04T09:21:31.735Z,1029.84
2023-02-04T09:22:31.735Z,1029.86
2023-02-04T09:23:31.725Z,1029.87
2023-02-04T09:24:31.713Z,1029.87
2023-02-04T09:25:31.682Z,1029.87
2023-02-04T09:26:31.686Z,1029.88
2023-02-04T09:27:31.670Z,1029.87
2023-02-04T09:28:31.674Z,1029.87
2023-02-04T09:29:31.684Z,1029.88
2023-02-04T09:30:31.894Z,1029.90
2023-02-04T09:31:31.788Z,1029.90
2023-02-04T09:32:31.638Z,1029.97
2023-02-04T09:33:31.625Z,1029.93
2023-02-04T09:34:31.597Z,1029.95
2023-02-04T09:35:31.600Z,1029.95
2023-02-04T09:36:31.577Z,1029.92
2023-02-04T09:37:31.561Z,1029.90
2023-02-04T09:38:31.574Z,1029.89
2023-02-04T09:39:31.548Z,1029.93
2023-02-04T09:40:31.875Z,1029.95
2023-02-04T09:41:31.521Z,1029.95
2023-02-04T09:42:31.516Z,1029.94
2023-02-04T09:43:31.527Z,1029.97
2023-02-04T09:44:31.494Z,1030.02
2023-02-04T09:45:31.518Z,1030.00
2023-02-04T09:46:31.483Z,1030.05
2023-02-04T09:47:31.463Z,1030.01
2023-02-04T09:48:31.467Z,1030.08
2023-02-04T09:49:31.433Z,1030.08
2023-02-04T09:50:31.735Z,1030.10
2023-02-04T09:51:31.415Z,1030.13
2023-02-04T09:52:31.405Z,1030.14
2023-02-04T09:53:31.401Z,1030.17
2023-02-04T09:54:31.394Z,1030.16
2023-02-04T09:55:31.358Z,1030.17
2023-02-04T09:56:31.356Z,1030.18
2023-02-04T09:57:31.343Z,1030.21
2023-02-04T09:58:31.482Z,1030.20
2023-02-04T09:59:31.312Z,1030.22
2023-02-04T10:00:31.744Z,1030.23
2023-02-04T10:01:31.292Z,1030.28
2023-02-04T10:02:31.279Z,1030.26
2023-02-04T10:03:31.443Z,1030.24
2023-02-04T10:04:31.256Z,1030.28
2023-02-04T10:05:31.250Z,1030.27
2023-02-04T10:06:31.235Z,1030.29
2023-02-04T10:07:31.220Z,1030.28
2023-02-04T10:08:31.227Z,1030.24
2023-02-04T10:09:31.185Z,1030.23
2023-02-04T10:10:31.469Z,1030.30
2023-02-04T10:11:31.177Z,1030.29
2023-02-04T10:12:31.167Z,1030.29
2023-02-04T10:13:31.153Z,1030.27
2023-02-04T10:14:31.142Z,1030.31
2023-02-04T10:15:31.120Z,1030.32
2023-02-04T10:16:31.143Z,1030.32
2023-02-04T10:17:31.112Z,1030.32
2023-02-04T10:18:31.198Z,1030.33
2023-02-04T10:19:31.091Z,1030.35
2023-02-04T10:20:31.390Z,1030.31
2023-02-04T10:21:31.058Z,1030.35
2023-02-04T10:22:31.052Z,1030.35
2023-02-04T10:23:31.040Z,1030.32
2023-02-04T10:24:31.024Z,1030.35
2023-02-04T10:25:31.012Z,1030.36
2023-02-04T10:26:31.021Z,1030.37
2023-02-04T10:27:30.997Z,1030.33
2023-02-04T10:28:31.000Z,1030.36
2023-02-04T10:29:30.967Z,1030.43
2023-02-04T10:30:31.480Z,1030.39
2023-02-04T10:31:31.000Z,1030.43
2023-02-04T10:32:30.963Z,1030.39
2023-02-04T10:33:30.934Z,1030.43
2023-02-04T10:34:30.920Z,1030.39
2023-02-04T10:35:30.912Z,1030.38
2023-02-04T10:36:30.894Z,1030.36
2023-02-04T10:37:30.888Z,1030.31
2023-02-04T10:38:30.907Z,1030.32
2023-02-04T10:39:30.862Z,1030.30
2023-02-04T10:40:31.335Z,1030.36
2023-02-04T10:41:30.842Z,1030.33
2023-02-04T10:42:30.864Z,1030.35
2023-02-04T10:43:30.837Z,1030.31
2023-02-04T10:44:30.829Z,1030.28
2023-02-04T10:45:30.802Z,1030.29
2023-02-04T10:46:30.849Z,1030.27
2023-02-04T10:47:30.863Z,1030.31
2023-02-04T10:48:30.791Z,1030.29
2023-02-04T10:49:30.765Z,1030.32
2023-02-04T10:50:30.999Z,1030.27
2023-02-04T10:51:30.766Z,1030.32
2023-02-04T10:52:30.739Z,1030.34
2023-02-04T10:53:30.717Z,1030.31
2023-02-04T10:54:30.707Z,1030.32
2023-02-04T10:55:30.698Z,1030.32
2023-02-04T10:56:30.688Z,1030.33
2023-02-04T10:57:30.683Z,1030.25
2023-02-04T10:58:30.678Z,1030.29
2023-02-04T10:59:30.657Z,1030.32
2023-02-04T11:00:30.866Z,1030.29
2023-02-04T11:01:30.690Z,1030.31
2023-02-04T11:02:30.631Z,1030.35
2023-02-04T11:03:30.696Z,1030.35
2023-02-04T11:04:30.599Z,1030.32
2023-02-04T11:05:30.596Z,1030.28
2023-02-04T11:06:30.561Z,1030.26
2023-02-04T11:07:30.561Z,1030.30
2023-02-04T11:08:30.585Z,1030.29
2023-02-04T11:09:30.540Z,1030.28
2023-02-04T11:10:31.117Z,1030.24
2023-02-04T11:11:30.519Z,1030.28
2023-02-04T11:12:30.516Z,1030.27
2023-02-04T11:13:30.499Z,1030.27
2023-02-04T11:14:30.494Z,1030.27
2023-02-04T11:15:30.514Z,1030.27
2023-02-04T11:16:30.457Z,1030.24
2023-02-04T11:17:30.432Z,1030.27
2023-02-04T11:18:30.467Z,1030.28
2023-02-04T11:19:30.442Z,1030.27
2023-02-04T11:20:30.776Z,1030.29
2023-02-04T11:21:30.402Z,1030.26
2023-02-04T11:22:30.397Z,1030.27
2023-02-04T11:23:30.402Z,1030.27
2023-02-04T11:24:30.398Z,1030.26
2023-02-04T11:25:30.799Z,1030.26
2023-02-04T11:26:30.362Z,1030.27
2023-02-04T11:27:30.342Z,1030.28
2023-02-04T11:28:30.337Z,1030.31
2023-02-04T11:29:30.306Z,1030.29
2023-02-04T11:30:30.307Z,1030.29
2023-02-04T11:31:30.443Z,1030.32
2023-02-04T11:32:30.278Z,1030.31
2023-02-04T11:33:30.267Z,1030.26
2023-02-04T11:34:30.260Z,1030.29
2023-02-04T11:35:30.493Z,1030.28
2023-02-04T11:36:30.250Z,1030.29
2023-02-04T11:37:30.219Z,1030.23
2023-02-04T11:38:30.377Z,1030.26
2023-02-04T11:39:30.199Z,1030.27
2023-02-04T11:40:30.196Z,1030.27
2023-02-04T11:41:30.195Z,1030.25
2023-02-04T11:42:30.161Z,1030.27
2023-02-04T11:43:30.199Z,1030.24
2023-02-04T11:44:30.138Z,1030.23
2023-02-04T11:45:30.470Z,1030.24
2023-02-04T11:46:30.200Z,1030.22
2023-02-04T11:47:30.116Z,1030.20
2023-02-04T11:48:30.108Z,1030.23
2023-02-04T11:49:30.087Z,1030.15
2023-02-04T11:50:30.067Z,1030.17
2023-02-04T11:51:30.070Z,1030.19
2023-02-04T11:52:30.047Z,1030.18
2023-02-04T11:53:30.066Z,1030.21
2023-02-04T11:54:30.030Z,1030.20
2023-02-04T11:55:30.510Z,1030.19
2023-02-04T11:56:30.039Z,1030.21
2023-02-04T11:57:30.045Z,1030.13
2023-02-04T11:58:29.991Z,1030.18
2023-02-04T11:59:30.001Z,1030.19
2023-02-04T12:00:29.959Z,1030.18
2023-02-04T12:01:30.004Z,1030.19
2023-02-04T12:02:29.992Z,1030.25
2023-02-04T12:03:30.005Z,1030.21
2023-02-04T12:04:30.037Z,1030.18
2023-02-04T12:05:30.101Z,1030.15